Tiempo atmosférico en la estación meteorológica de Sardón De Duero, Valladolid (720 m.)



Fecha
DESCASC
Temp. máxima en grados centígrados (hora)
DESCASC
Temp. mínima en grados centígrados (hora)
DESCASC
Temp. media en grados centígrados
DESCASC
Racha de viento máxima en m/sg (hora)
DESCASC
Velocidad máxima media en intervalos de 10 minutos(hora)
DESCASC
Precipitaciones diarias en mm
DESCASC
Precipitaciones de 00:00 a 06:00 en mm
DESCASC
Precipitaciones de 06:00 a 12:00 en mm
DESCASC
Precipitaciones de 12:00 a 18:00 en mm
DESCASC
Precipitaciones de 18:00 a 24:00 en mm
DESCASC
14-12-2019 11.5 (13:00) 8.3 (05:10) 9.9 11.67 (00:10) 6.94 (00:10) 0 0 0 0 0
13-12-2019 12.9 (12:40) 9.7 (09:00) 11.3 14.72 (03:00) 9.17 (16:50) 0 0 0 0 0
12-12-2019 11.4 (23:50) 2.4 (00:50) 6.9 16.11 (12:50) 8.89 (12:50) 0.4 0 0.4 0 0
11-12-2019 10.5 (14:40) 0.8 (00:00) 5.7 10.83 (15:50) 6.11 (15:50) 2.4 0 2.4 0 0
10-12-2019 11.7 (14:50) -3.2 (08:20) 4.2 3.06 (15:30) 2.22 (15:30) 0.2 0 0.2 0 0
09-12-2019 10.3 (15:50) -1.9 (22:30) 4.2 5.56 (11:50) 3.89 (11:40) 0 0 0 0 0
08-12-2019 8.8 (21:40) -2.4 (-00:0) 3.2 3.61 (13:30) 2.22 (21:20) 1.8 0 0.2 1.6 0
07-12-2019 13.8 (15:20) -2.6 (-00:0) 5.6 3.61 (15:30) 2.22 (15:30) 0 0 0 0 0
06-12-2019 13.9 (13:20) -2.2 (-00:0) 5.8 3.89 (14:00) 2.5 (14:20) 0 0 0 0 0
05-12-2019 14.2 (14:10) 1 (00:00) 7.6 10 (05:00) 4.17 (02:00) 0 0 0 0 0
04-12-2019 13.1 (13:00) -3.1 (07:40) 5 8.89 (23:40) 3.89 (23:20) 0 0 0 0 0
03-12-2019 11.2 (15:40) -2.2 (-00:0) 4.5 8.06 (02:20) 3.33 (02:20) 0 0 0 0 0
02-12-2019 11.2 (14:30) 1.7 (00:00) 6.4 13.61 (14:10) 6.11 (14:20) 0.2 0 0 0.2 0
01-12-2019 8 (14:40) 1.9 (00:00) 4.9 7.22 (23:00) 2.5 (22:50) 5 0.4 3.2 1.2 0.2
30-11-2019 14.6 (12:50) 3.5 (00:00) 9.1 14.17 (12:20) 8.61 (14:00) 5.8 1.6 0 4.2 0
29-11-2019 16.7 (16:30) 7.8 (00:00) 12.3 6.39 (02:10) 4.17 (02:20) 4.2 1.8 0.8 0.2 1.4
28-11-2019 13.2 (15:50) 9 (01:20) 11.1 12.78 (16:10) 8.33 (15:40) 0.2 0 0 0 0.2
27-11-2019 12 (12:50) 7.7 (00:00) 9.8 15.56 (15:50) 7.78 (14:10) 0 0 0 0 0
26-11-2019 17.9 (15:00) 9.5 (00:00) 13.7 18.61 (18:00) 12.22 (18:00) 4.6 0 0.6 0 4
25-11-2019 14 (12:00) 8.7 (00:00) 11.3 10.28 (14:40) 6.39 (03:50) 1.4 1.2 0 0.2 0
24-11-2019 9 (15:50) 1.7 (00:00) 5.4 8.89 (14:30) 5.28 (13:50) 0 0 0 0 0
23-11-2019 11.8 (15:30) 4 (00:00) 7.9 13.89 (02:20) 8.61 (01:10) 0.8 0.8 0 0 0
22-11-2019 13.3 (16:30) 5.2 (00:00) 9.3 16.39 (13:10) 9.72 (13:10) 7 0.8 3.4 2.8 0
21-11-2019 11.7 (15:30) 2.8 (00:00) 7.2 7.78 (15:20) 4.72 (13:50) 0.8 0.6 0 0 0.2
20-11-2019 7 (13:00) 1.7 (03:10) 4.4 7.22 (16:00) 4.17 (16:00) 3.6 0 0.6 3 0
19-11-2019 7.9 (12:50) -4 (-00:0) 2 3.33 (13:40) 1.94 (13:40) 0 0 0 0 0
18-11-2019 11.7 (17:30) -2.2 (-00:0) 4.7 3.61 (00:20) 2.5 (00:20) 0 0 0 0 0
17-11-2019 10.5 (17:10) 1.7 (00:00) 6.1 9.17 (14:20) 5.28 (17:10) 2.2 0 1.8 0.4 0
16-11-2019 10.6 (16:30) -3.6 (-00:0) 3.5 8.06 (14:30) 4.72 (14:30) 0 0 0 0 0

Gráficas

Temp. máximas Temp. mínimas Temp. medias Precipitaciones Rachas de viento máximas Velocidades máximas media en intervalos de 10 minutos

Datos horarios

Fecha y hora oficial Temperatura (ºC) Velocidad del viento (km/h) Dirección del viento Racha (km/h) Dirección de racha Precipitación (mm) Presión (hPa) Tendencia (hPa) Humedad (%)
2019-12-15 23:00:00 9.1 22 Sur 36 Sur 0 -- -- 80
2019-12-15 22:00:00 9.5 17 Sur 32 Sur 0 -- -- 80
2019-12-15 21:00:00 9.4 13 Sur 27 Sudeste 0 -- -- 81
2019-12-15 20:00:00 10.3 18 Sur 27 Sur 0 -- -- 78
2019-12-15 19:00:00 10.3 18 Sur 29 Sur 0 -- -- 78
2019-12-15 18:00:00 11.1 15 Sur 28 Sur 0 -- -- 75
2019-12-15 17:00:00 12 17 Sudoeste 35 Sudoeste 0 -- -- 68
2019-12-15 16:00:00 13.4 26 Sudoeste 49 Oeste 0 -- -- 60
2019-12-15 15:00:00 13.3 29 Sudoeste 44 Sudoeste 0 -- -- 60
2019-12-15 14:00:00 12.9 22 Sudoeste 37 Sudoeste 0 -- -- 65
2019-12-15 13:00:00 11.5 19 Sudoeste 41 Sudoeste 0 -- -- 71
2019-12-15 12:00:00 10.7 26 Sudoeste 41 Sudoeste 0 -- -- 75
2019-12-15 11:00:00 9.9 24 Sudoeste 39 Sudoeste 0 -- -- 76
2019-12-15 10:00:00 9.5 23 Sudoeste 39 Sur 0 -- -- 78
2019-12-15 09:00:00 9 25 Sudoeste 39 Sudoeste 0 -- -- 80
2019-12-15 08:00:00 9.4 26 Sudoeste 39 Sudoeste 0 -- -- 76
2019-12-15 07:00:00 9.4 22 Sudoeste 34 Sudoeste 0 -- -- 76
2019-12-15 06:00:00 9.3 15 Sudoeste 35 Sur 0 -- -- 80
2019-12-15 05:00:00 9.4 22 Sur 37 Sudoeste 0 -- -- 83
2019-12-15 04:00:00 9.9 23 Sudoeste 40 Sudoeste 0 -- -- 76
2019-12-15 03:00:00 9.7 27 Sudoeste 41 Sudoeste 0 -- -- 78
2019-12-15 02:00:00 9.6 23 Sudoeste 39 Sudoeste 0 -- -- 80
2019-12-15 01:00:00 9.9 26 Sudoeste 39 Sudoeste 0 -- -- 75
2019-12-15 00:00:00 9.7 18 Sudoeste 30 Sudoeste 0 -- -- 80
2019-12-14 23:00:00 9.5 13 Sudoeste 30 Sudoeste 0 -- -- 82
2019-12-14 22:00:00 9.8 21 Sudoeste 32 Sudoeste 0 -- -- 79
2019-12-14 21:00:00 9.5 14 Sudoeste 26 Sudoeste 0 -- -- 83
2019-12-14 20:00:00 9.8 13 Sudoeste 22 Sudoeste 0 -- -- 84
2019-12-14 19:00:00 9.6 12 Sudoeste 34 Sudoeste 0 -- -- 88
2019-12-14 18:00:00 10 14 Sudoeste 24 Sudoeste 0 -- -- 84
2019-12-14 17:00:00 10.6 16 Sudoeste 32 Oeste 0 -- -- 82
2019-12-14 16:00:00 11.1 23 Sudoeste 34 Sudoeste 0 -- -- 80
2019-12-14 15:00:00 11 18 Sudoeste 31 Sudoeste 0 -- -- 80
2019-12-14 14:00:00 10.9 16 Sudoeste 34 Sudoeste 0 -- -- 82
2019-12-14 13:00:00 11.5 18 Sudoeste 28 Oeste 0 -- -- 78
2019-12-14 12:00:00 10.6 21 Oeste 32 Oeste 0 -- -- 80
2019-12-14 11:00:00 10.2 17 Sudoeste 27 Sudoeste 0 -- -- 81
2019-12-14 10:00:00 9.2 17 Sudoeste 26 Sudoeste 0 -- -- 82
2019-12-14 09:00:00 8.9 13 Sudoeste 26 Sudoeste 0 -- -- 82
2019-12-14 08:00:00 9 15 Oeste 24 Oeste 0 -- -- 81
2019-12-14 07:00:00 8.9 15 Sudoeste 30 Sudoeste 0 -- -- 83
2019-12-14 06:00:00 8.6 15 Sudoeste 26 Sudoeste 0 -- -- 86
2019-12-14 05:00:00 8.5 15 Sudoeste 30 Sudoeste 0 -- -- 88
2019-12-14 04:00:00 8.9 20 Sudoeste 35 Sudoeste 0 -- -- 87
2019-12-14 03:00:00 8.4 14 Oeste 26 Oeste 0 -- -- 89
2019-12-14 02:00:00 8.8 16 Sudoeste 30 Sudoeste 0 -- -- 86
2019-12-14 01:00:00 9.1 18 Sudoeste 42 Oeste 0 -- -- 87
2019-12-14 00:00:00 9.8 24 Sudoeste 38 Oeste 0 -- -- 85
2019-12-13 23:00:00 10.2 20 Oeste 34 Sudoeste 0 -- -- 85
2019-12-13 22:00:00 10.3 23 Oeste 36 Oeste 0 -- -- 87
2019-12-13 21:00:00 10.6 26 Sudoeste 42 Oeste 0 -- -- 87
2019-12-13 20:00:00 10.9 21 Sudoeste 36 Oeste 0 -- -- 86
2019-12-13 19:00:00 10.8 22 Oeste 36 Oeste 0 -- -- 86
2019-12-13 18:00:00 11.5 14 Sudoeste 43 Oeste 0 -- -- 84
2019-12-13 17:00:00 12.3 29 Oeste 52 Oeste 0 -- -- 82
2019-12-13 16:00:00 12.7 23 Oeste 47 Sudoeste 0 -- -- 81
2019-12-13 15:00:00 12.5 24 Oeste 44 Sudoeste 0 -- -- 82
2019-12-13 14:00:00 12.8 26 Oeste 43 Oeste 0 -- -- 81
2019-12-13 13:00:00 12.6 26 Oeste 45 Sudoeste 0 -- -- 81
2019-12-13 12:00:00 12.5 27 Oeste 39 Oeste 0 -- -- 80
2019-12-13 11:00:00 11.2 23 Sudoeste 38 Oeste 0 -- -- 83
2019-12-13 10:00:00 10.2 19 Sudoeste 32 Sudoeste 0 -- -- 85
2019-12-13 09:00:00 9.7 23 Sudoeste 36 Sudoeste 0 -- -- 86
2019-12-13 08:00:00 10.4 21 Sudoeste 33 Sudoeste 0 -- -- 84
2019-12-13 07:00:00 10.5 16 Sudoeste 31 Sudoeste 0 -- -- 87
2019-12-13 06:00:00 10.7 19 Sudoeste 38 Sudoeste 0 -- -- 87
2019-12-13 05:00:00 11.1 19 Sudoeste 41 Oeste 0 -- -- 87
2019-12-13 04:00:00 11.5 26 Oeste 43 Sudoeste 0 -- -- 86
2019-12-13 03:00:00 11.6 27 Oeste 53 Sudoeste 0 -- -- 86
2019-12-13 02:00:00 11.5 26 Oeste 46 Sudoeste 0 -- -- 87
2019-12-13 01:00:00 11.4 26 Oeste 50 Oeste 0 -- -- 87
2019-12-13 00:00:00 11.3 25 Oeste 44 Sudoeste 0 -- -- 88
2019-12-12 23:00:00 11.3 26 Oeste 41 Sudoeste 0 -- -- 87
2019-12-12 22:00:00 10.9 23 Oeste 45 Oeste 0 -- -- 88
2019-12-12 21:00:00 10.7 26 Oeste 41 Oeste 0 -- -- 88
2019-12-12 20:00:00 10.1 24 Oeste 42 Oeste 0 -- -- 89
2019-12-12 19:00:00 9.4 27 Oeste 49 Oeste 0 -- -- 90
2019-12-12 18:00:00 8.8 24 Oeste 42 Sudoeste 0 -- -- 90
2019-12-12 17:00:00 8.3 27 Oeste 48 Oeste 0 -- -- 90
2019-12-12 16:00:00 7.8 27 Oeste 53 Sudoeste 0 -- -- 92
2019-12-12 15:00:00 8 30 Oeste 46 Oeste 0 -- -- 87
2019-12-12 14:00:00 6.9 26 Sudoeste 53 Sudoeste 0 -- -- 93
2019-12-12 13:00:00 7.1 30 Sudoeste 58 Sudoeste 0 -- -- 89
2019-12-12 12:00:00 6.2 28 Sudoeste 44 Oeste 0.4 -- -- 94
2019-12-12 11:00:00 6.2 25 Sudoeste 44 Oeste 0 -- -- 91
2019-12-12 10:00:00 6.1 21 Sudoeste 36 Sudoeste 0 -- -- 91
2019-12-12 09:00:00 5.3 18 Sudoeste 31 Sudoeste 0 -- -- 94
2019-12-12 08:00:00 5 17 Sudoeste 26 Sudoeste 0 -- -- 93
2019-12-12 07:00:00 4.3 14 Sudoeste 24 Oeste 0 -- -- 95
2019-12-12 06:00:00 4.1 13 Sudoeste 24 Sudoeste 0 -- -- 95
2019-12-12 05:00:00 3.7 13 Sudoeste 22 Sudoeste 0 -- -- 96
2019-12-12 04:00:00 3.6 9 Sudoeste 15 Sudoeste 0 -- -- 95
2019-12-12 03:00:00 3.5 9 Sudoeste 18 Oeste 0 -- -- 95
2019-12-12 02:00:00 2.8 8 Oeste 19 Sudoeste 0 -- -- 96
2019-12-12 01:00:00 2.4 7 Sudoeste 18 Oeste 0 -- -- 95
2019-12-12 00:00:00 3.2 15 Sudoeste 27 Oeste 0 -- -- 90
2019-12-11 23:00:00 3 10 Sudoeste 24 Sudoeste 0 -- -- 90
2019-12-11 22:00:00 3.8 14 Sudoeste 25 Oeste 0 -- -- 86
2019-12-11 21:00:00 4.9 16 Oeste 26 Oeste 0 -- -- 80
2019-12-11 20:00:00 5.2 14 Oeste 22 Oeste 0 -- -- 78
2019-12-11 19:00:00 4.9 12 Oeste 16 Oeste 0 -- -- 78
2019-12-11 18:00:00 6.3 13 Oeste 31 Oeste 0 -- -- 70
2019-12-11 17:00:00 8.5 12 Oeste 33 Oeste 0 -- -- 59
2019-12-11 16:00:00 9.6 18 Oeste 39 Oeste 0 -- -- 58
2019-12-11 15:00:00 10.2 18 Noroeste 33 Oeste 0 -- -- 60
2019-12-11 14:00:00 9.9 14 Noroeste 32 Noroeste 0 -- -- 66
2019-12-11 13:00:00 9.2 13 Noroeste 26 Oeste 0 -- -- 78
2019-12-11 12:00:00 7 9 Oeste 20 Noroeste 0 -- -- 90
2019-12-11 11:00:00 4.9 9 Oeste 19 Noroeste 0 -- -- 100
2019-12-11 10:00:00 3.7 10 Oeste 20 Sudoeste 0.4 -- -- 100
2019-12-11 09:00:00 3.4 7 Oeste 19 Sudoeste 0.4 -- -- 100
2019-12-11 08:00:00 3.8 7 Sudoeste 17 Sudoeste 1.4 -- -- 95
2019-12-11 07:00:00 4.4 4 Oeste 8 Sudoeste 0.2 -- -- 89
2019-12-11 06:00:00 3.9 6 Oeste 8 Oeste 0 -- -- 99
2019-12-11 05:00:00 3 0 Calma 5 Sudoeste 0 -- -- 100
2019-12-11 04:00:00 3 0 Calma 3 Sur 0 -- -- 100
2019-12-11 03:00:00 3.6 2 Sudoeste 7 Sur 0 -- -- 100
2019-12-11 02:00:00 2.5 0 Calma 3 Sur 0 -- -- 100
2019-12-11 01:00:00 0.8 0 Calma 5 Sur 0 -- -- 100
2019-12-11 00:00:00 2.4 0 Calma 5 Sur 0 -- -- 100
2019-12-10 23:00:00 1.7 3 Este 6 Este 0 -- -- 100
2019-12-10 22:00:00 -0.1 2 Este 4 Este 0 -- -- 100
2019-12-10 21:00:00 1.9 0 Calma 6 Sudoeste 0 -- -- 100
2019-12-10 20:00:00 1.8 0 Calma 4 Sur 0 -- -- 99
2019-12-10 19:00:00 3.2 0 Calma 3 Sur 0 -- -- 97
2019-12-10 18:00:00 5.8 2 Oeste 5 Oeste 0 -- -- 94
2019-12-10 17:00:00 7.2 3 Oeste 5 Oeste 0 -- -- 89
2019-12-10 16:00:00 7.8 4 Oeste 11 Oeste 0 -- -- 85
2019-12-10 15:00:00 11.2 5 Oeste 10 Oeste 0 -- -- 68
2019-12-10 14:00:00 10.9 3 Oeste 5 Sudoeste 0 -- -- 72
2019-12-10 13:00:00 7.2 2 Sudoeste 4 Sudoeste 0 -- -- 90
2019-12-10 12:00:00 1.9 0 Calma 4 Nordeste 0 -- -- 98
2019-12-10 11:00:00 0.2 2 Norte 4 Norte 0.2 -- -- 98
2019-12-10 10:00:00 -2.5 0 Calma 2 Sudoeste 0 -- -- 100
2019-12-10 09:00:00 -3.2 0 Calma -- -- 0 -- -- 100
2019-12-10 08:00:00 -3 0 Calma 0 Calma 0 -- -- 100
2019-12-10 07:00:00 -2.9 0 Calma 4 Este 0 -- -- 100
2019-12-10 06:00:00 -2.9 0 Calma 2 Sudeste 0 -- -- 100
2019-12-10 05:00:00 -2.2 0 Calma 3 Sudeste 0 -- -- 100
2019-12-10 04:00:00 -2.3 0 Calma 4 Este 0 -- -- 100
2019-12-10 03:00:00 -2.1 3 Este 4 Este 0 -- -- 100
2019-12-10 02:00:00 -1.8 2 Este 5 Este 0 -- -- 100
2019-12-10 01:00:00 -1.7 2 Nordeste 6 Este 0 -- -- 100
2019-12-10 00:00:00 -1.9 0 Calma 3 Sur 0 -- -- 100
2019-12-09 23:00:00 -1.7 0 Calma 2 Sur 0 -- -- 100
2019-12-09 22:00:00 -0.9 0 Calma 4 Este 0 -- -- 100
2019-12-09 21:00:00 -0.8 0 Calma 2 Este 0 -- -- 100
2019-12-09 20:00:00 0.7 0 Calma 4 Este 0 -- -- 100
2019-12-09 19:00:00 1.5 4 Sudeste 5 Este 0 -- -- 98
2019-12-09 18:00:00 4.2 0 Calma 6 Sudeste 0 -- -- 95
2019-12-09 17:00:00 8 3 Este 4 Noroeste 0 -- -- 87
2019-12-09 16:00:00 9.4 3 Noroeste 5 Oeste 0 -- -- 74
2019-12-09 15:00:00 9.8 5 Oeste 9 Sudoeste 0 -- -- 74
2019-12-09 14:00:00 9.6 4 Oeste 14 Oeste 0 -- -- 73
2019-12-09 13:00:00 8 9 Oeste 18 Oeste 0 -- -- 83
2019-12-09 12:00:00 7.1 12 Oeste 20 Oeste 0 -- -- 85
2019-12-09 11:00:00 7.1 13 Sudoeste 19 Sudoeste 0 -- -- 88
2019-12-09 10:00:00 5.4 12 Oeste 18 Sudoeste 0 -- -- 97
2019-12-09 09:00:00 4.9 12 Sudoeste 17 Sudoeste 0 -- -- 100
2019-12-09 08:00:00 5.1 7 Sudoeste 17 Sudoeste 0 -- -- 100
2019-12-09 07:00:00 5.5 10 Sudoeste 19 Sudoeste 0 -- -- 100
2019-12-09 06:00:00 5.5 8 Sudoeste 12 Sudoeste 0 -- -- 100
2019-12-09 05:00:00 5.7 8 Oeste 13 Oeste 0 -- -- 100
2019-12-09 04:00:00 5.9 5 Oeste 13 Sudoeste 0 -- -- 100
2019-12-09 03:00:00 6.6 11 Sudoeste 18 Sudoeste 0 -- -- 99
2019-12-09 02:00:00 6.7 7 Sudoeste 17 Oeste 0 -- -- 99
2019-12-09 01:00:00 7.5 8 Oeste 15 Oeste 0 -- -- 98
2019-12-09 00:00:00 8.2 7 Oeste 12 Oeste 0 -- -- 100
2019-12-08 23:00:00 8.5 5 Sudoeste 10 Oeste 0 -- -- 100
2019-12-08 22:00:00 8.8 6 Sudoeste 12 Sur 0 -- -- 100
2019-12-08 21:00:00 8.6 6 Sudoeste 12 Sudoeste 0 -- -- 100
2019-12-08 20:00:00 8.3 5 Oeste 11 Oeste 0 -- -- 100
2019-12-08 19:00:00 8 3 Oeste 6 Sudoeste 0 -- -- 100
2019-12-08 18:00:00 8 2 Sudoeste 8 Sudoeste 0.2 -- -- 100
2019-12-08 17:00:00 8.1 6 Oeste 9 Oeste 0.2 -- -- 100
2019-12-08 16:00:00 7.7 4 Oeste 7 Oeste 0.2 -- -- 100
2019-12-08 15:00:00 7 4 Sudoeste 5 Sudoeste 0 -- -- 100
2019-12-08 14:00:00 6.1 5 Oeste 13 Sur 1 -- -- 100
2019-12-08 13:00:00 5.4 0 Calma 4 Sudeste 0 -- -- 100
2019-12-08 12:00:00 4.9 0 Calma 5 Este 0 -- -- 100
2019-12-08 11:00:00 2.7 2 Este 5 Nordeste 0 -- -- 100
2019-12-08 10:00:00 1 2 Este 4 Este 0.2 -- -- 100
2019-12-08 09:00:00 -0.1 0 Calma 5 Este 0 -- -- 100
2019-12-08 08:00:00 -1 2 Sudeste 4 Sur 0 -- -- 100
2019-12-08 07:00:00 -1.5 0 Calma 4 Este 0 -- -- 100
2019-12-08 06:00:00 -1.7 0 Calma 3 Sudeste 0 -- -- 100
2019-12-08 05:00:00 -2 0 Calma 3 Este 0 -- -- 100
2019-12-08 04:00:00 -2.4 0 Calma 3 Sudeste 0 -- -- 100
2019-12-08 03:00:00 -2 0 Calma 4 Sudeste 0 -- -- 100
2019-12-08 02:00:00 -1.8 2 Este 4 Este 0 -- -- 100
2019-12-08 01:00:00 -2 0 Calma 2 Este 0 -- -- 100
2019-12-08 00:00:00 -2 0 Calma 3 Este 0 -- -- 100
2019-12-07 23:00:00 -0.8 0 Calma 4 Este 0 -- -- 100
2019-12-07 22:00:00 -0.7 2 Este 3 Nordeste 0 -- -- 100
2019-12-07 21:00:00 0 0 Calma 3 Sudeste 0 -- -- 99
2019-12-07 20:00:00 1.6 0 Calma 5 Sudeste 0 -- -- 98
2019-12-07 19:00:00 2.8 2 Sudeste 5 Sur 0 -- -- 96
2019-12-07 18:00:00 6.3 4 Sur 6 Sur 0 -- -- 88
2019-12-07 17:00:00 12.3 4 Sudoeste 9 Oeste 0 -- -- 68
2019-12-07 16:00:00 11.2 6 Oeste 13 Sudoeste 0 -- -- 71
2019-12-07 15:00:00 13.3 5 Oeste 10 Oeste 0 -- -- 64
2019-12-07 14:00:00 12.2 4 Sudoeste 8 Sudoeste 0 -- -- 70
2019-12-07 13:00:00 9.6 2 Este 6 Nordeste 0 -- -- 93
2019-12-07 12:00:00 3.6 2 Este 6 Nordeste 0 -- -- 100
2019-12-07 11:00:00 1.8 3 Nordeste 8 Este 0 -- -- 99
2019-12-07 10:00:00 -0.2 3 Este 8 Este 0 -- -- 100
2019-12-07 09:00:00 -1 3 Este 7 Este 0 -- -- 100
2019-12-07 08:00:00 -1.8 2 Este 5 Este 0 -- -- 100
2019-12-07 07:00:00 -2.5 0 Calma 3 Este 0 -- -- 100
2019-12-07 06:00:00 -2.1 0 Calma 4 Nordeste 0 -- -- 100
2019-12-07 05:00:00 -1.2 2 Nordeste 5 Este 0 -- -- 100
2019-12-07 04:00:00 -1.2 0 Calma 3 Este 0 -- -- 100
2019-12-07 03:00:00 -1.3 0 Calma 4 Este 0 -- -- 100
2019-12-07 02:00:00 -0.8 0 Calma 0 Calma 0 -- -- 100
2019-12-07 01:00:00 -1.4 0 Calma 0 Calma 0 -- -- 100
2019-12-07 00:00:00 -1.1 0 Calma 0 Calma 0 -- -- 100
2019-12-06 23:00:00 -0.7 0 Calma 0 Calma 0 -- -- 100
2019-12-06 22:00:00 -0.3 0 Calma 0 Calma 0 -- -- 100
2019-12-06 21:00:00 0.6 0 Calma 0 Calma 0 -- -- 99
2019-12-06 20:00:00 1.7 0 Calma 7 Este 0 -- -- 98
2019-12-06 19:00:00 3 2 Sudeste 4 Este 0 -- -- 94
2019-12-06 18:00:00 6.7 0 Calma 8 Oeste 0 -- -- 84
2019-12-06 17:00:00 12.1 5 Oeste 12 Sudoeste 0 -- -- 68
2019-12-06 16:00:00 13.2 8 Oeste 14 Oeste 0 -- -- 62
2019-12-06 15:00:00 13.3 8 Oeste 14 Oeste 0 -- -- 63
2019-12-06 14:00:00 12.7 8 Oeste 14 Sudoeste 0 -- -- 63
2019-12-06 13:00:00 12 3 Sudoeste 6 Oeste 0 -- -- 67
2019-12-06 12:00:00 10 2 Sur 8 Este 0 -- -- 72
2019-12-06 11:00:00 6.4 4 Este 6 Este 0 -- -- 94
2019-12-06 10:00:00 0.1 0 Calma 3 Este 0 -- -- 100
2019-12-06 09:00:00 -1.9 0 Calma 3 Este 0 -- -- 100
2019-12-06 08:00:00 -2.2 0 Calma 4 Este 0 -- -- 100
2019-12-06 07:00:00 -1.8 0 Calma 3 Nordeste 0 -- -- 100
2019-12-06 06:00:00 -1.6 0 Calma 3 Este 0 -- -- 100
2019-12-06 05:00:00 -1.2 0 Calma 3 Este 0 -- -- 100
2019-12-06 04:00:00 -1.6 3 Este 4 Sudeste 0 -- -- 100
2019-12-06 03:00:00 -0.2 0 Calma 6 Este 0 -- -- 100
2019-12-06 02:00:00 -0.9 3 Sudeste 4 Este 0 -- -- 100
2019-12-06 01:00:00 1 0 Calma 5 Este 0 -- -- 100
2019-12-06 00:00:00 1.1 3 Nordeste 7 Nordeste 0 -- -- 99
2019-12-05 23:00:00 1.7 4 Este 6 Nordeste 0 -- -- 97
2019-12-05 22:00:00 3.7 2 Nordeste 13 Nordeste 0 -- -- 91
2019-12-05 21:00:00 4.5 5 Nordeste 14 Este 0 -- -- 90
2019-12-05 20:00:00 5.8 5 Nordeste 15 Este 0 -- -- 85
2019-12-05 19:00:00 6.4 4 Nordeste 16 Nordeste 0 -- -- 83
2019-12-05 18:00:00 8 6 Nordeste 20 Nordeste 0 -- -- 77
2019-12-05 17:00:00 11.8 8 Nordeste 19 Nordeste 0 -- -- 66
2019-12-05 16:00:00 13.1 12 Nordeste 27 Este 0 -- -- 59
2019-12-05 15:00:00 12.6 12 Nordeste 23 Nordeste 0 -- -- 63
2019-12-05 14:00:00 14 10 Este 24 Este 0 -- -- 58
2019-12-05 13:00:00 11.8 14 Nordeste 31 Nordeste 0 -- -- 66
2019-12-05 12:00:00 10.7 10 Nordeste 27 Nordeste 0 -- -- 71
2019-12-05 11:00:00 9.9 13 Nordeste 30 Este 0 -- -- 74
2019-12-05 10:00:00 6.3 11 Nordeste 24 Este 0 -- -- 87
2019-12-05 09:00:00 5.5 9 Nordeste 24 Este 0 -- -- 90
2019-12-05 08:00:00 5.2 9 Este 20 Este 0 -- -- 90
2019-12-05 07:00:00 5.6 9 Este 26 Nordeste 0 -- -- 87
2019-12-05 06:00:00 5.8 9 Este 24 Este 0 -- -- 87
2019-12-05 05:00:00 5.6 10 Nordeste 36 Nordeste 0 -- -- 88
2019-12-05 04:00:00 6 11 Nordeste 31 Este 0 -- -- 84
2019-12-05 03:00:00 6 10 Nordeste 29 Nordeste 0 -- -- 85
2019-12-05 02:00:00 6.3 15 Nordeste 28 Nordeste 0 -- -- 83
2019-12-05 01:00:00 6 9 Nordeste 27 Nordeste 0 -- -- 81
2019-12-05 00:00:00 4.6 12 Nordeste 32 Nordeste 0 -- -- 83
2019-12-04 23:00:00 4 10 Este 24 Este 0 -- -- 83
2019-12-04 22:00:00 5.3 10 Nordeste 26 Nordeste 0 -- -- 75
2019-12-04 21:00:00 6.8 11 Nordeste 27 Este 0 -- -- 75
2019-12-04 20:00:00 7.8 10 Este 25 Nordeste 0 -- -- 74
2019-12-04 19:00:00 7.3 5 Este 15 Este 0 -- -- 77
2019-12-04 18:00:00 7.4 5 Este 13 Este 0 -- -- 80
2019-12-04 17:00:00 11.6 7 Nordeste 22 Nordeste 0 -- -- 68
2019-12-04 16:00:00 12.5 6 Nordeste 18 Norte 0 -- -- 64
2019-12-04 15:00:00 10 8 Nordeste 18 Nordeste 0 -- -- 70
2019-12-04 14:00:00 10.8 6 Nordeste 22 Este 0 -- -- 67
2019-12-04 13:00:00 13.1 5 Este 12 Nordeste 0 -- -- 65
2019-12-04 12:00:00 5.7 0 Calma 3 Sur 0 -- -- 88
2019-12-04 11:00:00 3.7 0 Calma 5 Oeste 0 -- -- 95
2019-12-04 10:00:00 -0.4 4 Sudoeste 7 Sudoeste 0 -- -- 100
2019-12-04 09:00:00 -2.2 0 Calma 3 Sudoeste 0 -- -- 100
2019-12-04 08:00:00 -3 0 Calma 0 Calma 0 -- -- 100
2019-12-04 07:00:00 -2.5 0 Calma 2 Sur 0 -- -- 100
2019-12-04 06:00:00 -2 0 Calma 4 Sudeste 0 -- -- 100
2019-12-04 05:00:00 -1.9 0 Calma 5 Nordeste 0 -- -- 100
2019-12-04 04:00:00 -2.3 2 Este 4 Este 0 -- -- 100
2019-12-04 03:00:00 -1.9 2 Nordeste 5 Nordeste 0 -- -- 100
2019-12-04 02:00:00 -1.1 3 Nordeste 10 Nordeste 0 -- -- 100
2019-12-04 01:00:00 -1.4 0 Calma 6 Nordeste 0 -- -- 100
2019-12-04 00:00:00 -1.2 2 Nordeste 7 Este 0 -- -- 100
2019-12-03 23:00:00 -1.7 0 Calma 6 Este 0 -- -- 100
2019-12-03 22:00:00 -1.3 0 Calma 8 Nordeste 0 -- -- 99
2019-12-03 21:00:00 -1.3 3 Este 5 Este 0 -- -- 99
2019-12-03 20:00:00 -0.7 0 Calma 6 Este 0 -- -- 97
2019-12-03 19:00:00 -0.8 3 Este 5 Nordeste 0 -- -- 93
2019-12-03 18:00:00 3.9 2 Este 13 Este 0 -- -- 76
2019-12-03 17:00:00 10.2 5 Este 16 Este 0 -- -- 56
2019-12-03 16:00:00 10.6 9 Este 20 Este 0 -- -- 53
2019-12-03 15:00:00 10.4 6 Este 19 Este 0 -- -- 56
2019-12-03 14:00:00 9.7 9 Este 23 Este 0 -- -- 56
2019-12-03 13:00:00 9.4 10 Este 21 Este 0 -- -- 59
2019-12-03 12:00:00 8.6 9 Este 21 Este 0 -- -- 63
2019-12-03 11:00:00 6.2 8 Nordeste 24 Nordeste 0 -- -- 73
2019-12-03 10:00:00 2.4 9 Nordeste 22 Nordeste 0 -- -- 87
2019-12-03 09:00:00 -0.1 4 Este 17 Nordeste 0 -- -- 95
2019-12-03 08:00:00 0.6 6 Este 21 Este 0 -- -- 94
2019-12-03 07:00:00 0.5 5 Este 13 Nordeste 0 -- -- 95
2019-12-03 06:00:00 0.8 6 Este 20 Nordeste 0 -- -- 93
2019-12-03 05:00:00 1.5 8 Nordeste 24 Nordeste 0 -- -- 90
2019-12-03 04:00:00 1.3 7 Este 19 Este 0 -- -- 90
2019-12-03 03:00:00 1.7 9 Nordeste 29 Nordeste 0 -- -- 88
2019-12-03 02:00:00 2 11 Este 26 Nordeste 0 -- -- 88
2019-12-03 01:00:00 1.9 8 Este 24 Este 0 -- -- 87
2019-12-03 00:00:00 1.7 7 Este 19 Este 0 -- -- 86
2019-12-02 23:00:00 1.8 8 Este 23 Este 0 -- -- 83
2019-12-02 22:00:00 2.3 10 Este 26 Este 0 -- -- 80
2019-12-02 21:00:00 3 9 Este 30 Nordeste 0 -- -- 79
2019-12-02 20:00:00 3.8 10 Este 31 Este 0 -- -- 79
2019-12-02 19:00:00 4.5 10 Este 28 Nordeste 0 -- -- 80
2019-12-02 18:00:00 5.6 11 Nordeste 41 Nordeste 0 -- -- 79
2019-12-02 17:00:00 8.6 20 Nordeste 42 Nordeste 0 -- -- 70
2019-12-02 16:00:00 8.8 19 Nordeste 44 Este 0 -- -- 72
2019-12-02 15:00:00 9.9 21 Nordeste 49 Nordeste 0 -- -- 68
2019-12-02 14:00:00 11.1 18 Nordeste 44 Este 0 -- -- 63
2019-12-02 13:00:00 10.2 15 Nordeste 38 Nordeste 0.2 -- -- 70
2019-12-02 12:00:00 10.9 18 Nordeste 45 Nordeste 0 -- -- 71
2019-12-02 11:00:00 9.2 14 Nordeste 35 Nordeste 0 -- -- 75
2019-12-02 10:00:00 6.2 12 Nordeste 27 Nordeste 0 -- -- 86
2019-12-02 09:00:00 3.9 5 Este 19 Norte 0 -- -- 94
2019-12-02 08:00:00 4.3 9 Nordeste 23 Nordeste 0 -- -- 93
2019-12-02 07:00:00 4.7 10 Nordeste 27 Nordeste 0 -- -- 94
2019-12-02 06:00:00 4.4 10 Nordeste 24 Este 0 -- -- 95
2019-12-02 05:00:00 4.6 6 Este 15 Nordeste 0 -- -- 95
2019-12-02 04:00:00 4 5 Este 23 Sudeste 0 -- -- 97
2019-12-02 03:00:00 4.1 5 Este 18 Nordeste 0 -- -- 97
2019-12-02 02:00:00 4 6 Este 15 Sudeste 0 -- -- 98
2019-12-02 01:00:00 5.1 6 Este 19 Sudeste 0 -- -- 96
2019-12-02 00:00:00 5.7 9 Este 18 Nordeste 0 -- -- 96
2019-12-01 23:00:00 5.9 9 Nordeste 26 Nordeste 0 -- -- 96
2019-12-01 22:00:00 5.7 7 Nordeste 16 Este 0 -- -- 100
2019-12-01 21:00:00 5.4 4 Este 10 Nordeste 0 -- -- 100
2019-12-01 20:00:00 5.6 0 Calma 5 Este 0 -- -- 100
2019-12-01 19:00:00 6.3 2 Este 5 Sudeste 0.2 -- -- 99
2019-12-01 18:00:00 6.4 2 Nordeste 11 Este 0 -- -- 98
2019-12-01 17:00:00 7.2 5 Nordeste 12 Nordeste 0.2 -- -- 96
2019-12-01 16:00:00 7.4 6 Nordeste 12 Este 0 -- -- 96
2019-12-01 15:00:00 7.5 4 Nordeste 13 Nordeste 0.2 -- -- 95
2019-12-01 14:00:00 7.6 4 Nordeste 13 Nordeste 0 -- -- 97
2019-12-01 13:00:00 7.7 3 Este 10 Este 0.8 -- -- 98
2019-12-01 12:00:00 7.1 4 Este 8 Nordeste 0.8 -- -- 98
2019-12-01 11:00:00 6.5 2 Nordeste 4 Nordeste 0.6 -- -- 98
2019-12-01 10:00:00 5.9 3 Norte 9 Noroeste 0.8 -- -- 98
2019-12-01 09:00:00 5.5 3 Sudeste 12 Sudeste 0.4 -- -- 98
2019-12-01 08:00:00 5 2 Nordeste 8 Este 0 -- -- 99
2019-12-01 07:00:00 5.1 3 Sudeste 12 Sur 0.6 -- -- 96
2019-12-01 06:00:00 5.4 3 Sudoeste 7 Sur 0.4 -- -- 96
2019-12-01 05:00:00 5.2 3 Nordeste 11 Sudeste 0 -- -- 99
2019-12-01 04:00:00 4.7 0 Calma 5 Este 0 -- -- 100
2019-12-01 03:00:00 4.7 0 Calma 3 Oeste 0 -- -- 100
2019-12-01 02:00:00 4.2 0 Calma 6 Norte 0 -- -- 100
2019-12-01 01:00:00 2 0 Calma 7 Oeste 0 -- -- 100
2019-12-01 00:00:00 3.5 0 Calma 13 Sudoeste 0 -- -- 97
2019-11-30 23:00:00 4.8 9 Oeste 13 Sudoeste 0 -- -- 97
2019-11-30 22:00:00 5.7 4 Oeste 16 Sudoeste 0 -- -- 94
2019-11-30 21:00:00 6.2 8 Sudoeste 15 Sudoeste 0 -- -- 94
2019-11-30 20:00:00 7.5 12 Sudoeste 24 Sudoeste 0 -- -- 90
2019-11-30 19:00:00 7.8 13 Sudoeste 19 Sudoeste 0 -- -- 91
2019-11-30 18:00:00 8 9 Sudoeste 18 Sudoeste 0 -- -- 93
2019-11-30 17:00:00 8.7 13 Oeste 26 Oeste 1.4 -- -- 95
2019-11-30 16:00:00 9.3 15 Oeste 31 Oeste 1 -- -- 97
2019-11-30 15:00:00 10.5 21 Oeste 50 Sudoeste 1.4 -- -- 96
2019-11-30 14:00:00 13.5 31 Sudoeste 50 Sudoeste 0.4 -- -- 85
2019-11-30 13:00:00 14 28 Sudoeste 51 Sudoeste 0 -- -- 83
2019-11-30 12:00:00 13.4 25 Sudoeste 42 Sudoeste 0 -- -- 84
2019-11-30 11:00:00 13.4 22 Sudoeste 39 Sudoeste 0 -- -- 83
2019-11-30 10:00:00 12.6 21 Sudoeste 32 Sudoeste 0 -- -- 86
2019-11-30 09:00:00 12 17 Sudoeste 25 Sudoeste 0 -- -- 90
2019-11-30 08:00:00 11.5 20 Sudoeste 36 Sudoeste 0 -- -- 92
2019-11-30 07:00:00 11.5 10 Sudoeste 33 Sudoeste 0 -- -- 94
2019-11-30 06:00:00 11.9 14 Sudoeste 31 Sudoeste 0 -- -- 94
2019-11-30 05:00:00 12.1 12 Oeste 27 Sudoeste 0 -- -- 95
2019-11-30 04:00:00 12.2 13 Sudoeste 27 Sudoeste 0 -- -- 96
2019-11-30 03:00:00 12.1 11 Sudoeste 31 Sudoeste 0 -- -- 97
2019-11-30 02:00:00 12 12 Sudoeste 21 Sudoeste 0.2 -- -- 99
2019-11-30 01:00:00 11.4 10 Sudoeste 17 Sudoeste 1.4 -- -- 100
2019-11-30 00:00:00 10 0 Calma 4 Sur 0.4 -- -- 100
2019-11-29 23:00:00 9.5 0 Calma 5 Este 1 -- -- 100
2019-11-29 22:00:00 8.8 0 Calma 6 Este 0 -- -- 100
2019-11-29 21:00:00 8.4 3 Este 5 Este 0 -- -- 100
2019-11-29 20:00:00 7.9 0 Calma 5 Norte 0 -- -- 99
2019-11-29 19:00:00 9.1 2 Sudoeste 6 Sudoeste 0 -- -- 97
2019-11-29 18:00:00 11.8 6 Sur 10 Oeste 0 -- -- 89
2019-11-29 17:00:00 14.6 6 Oeste 12 Oeste 0 -- -- 79
2019-11-29 16:00:00 16.4 7 Oeste 18 Oeste 0 -- -- 73
2019-11-29 15:00:00 15.7 13 Sudoeste 19 Sudoeste 0 -- -- 78
2019-11-29 14:00:00 14.2 12 Oeste 17 Oeste 0 -- -- 85
2019-11-29 13:00:00 13.8 8 Sudoeste 16 Oeste 0.2 -- -- 88
2019-11-29 12:00:00 12.7 6 Oeste 11 Oeste 0 -- -- 96
2019-11-29 11:00:00 11.9 5 Sudoeste 8 Sudoeste 0 -- -- 100
2019-11-29 10:00:00 11.2 2 Oeste 9 Sudoeste 0.2 -- -- 100
2019-11-29 09:00:00 11 6 Sudoeste 10 Sudoeste 0 -- -- 100
2019-11-29 08:00:00 10.7 6 Oeste 14 Oeste 0.6 -- -- 100
2019-11-29 07:00:00 10.9 8 Sudoeste 15 Oeste 0 -- -- 100
2019-11-29 06:00:00 10.9 7 Oeste 16 Oeste 0 -- -- 100
2019-11-29 05:00:00 10.9 10 Oeste 18 Oeste 0 -- -- 100
2019-11-29 04:00:00 10.7 11 Sudoeste 17 Sudoeste 0.2 -- -- 100
2019-11-29 03:00:00 10.5 8 Sudoeste 23 Sudoeste 1.2 -- -- 100
2019-11-29 02:00:00 10.6 13 Sudoeste 21 Sudoeste 0.4 -- -- 100
2019-11-29 01:00:00 10.2 8 Oeste 22 Sudoeste 0 -- -- 99
2019-11-29 00:00:00 10.4 11 Oeste 25 Sudoeste 0.2 -- -- 97
2019-11-28 23:00:00 10.7 15 Oeste 32 Oeste 0 -- -- 92
2019-11-28 22:00:00 11.4 18 Sudoeste 39 Sudoeste 0 -- -- 86
2019-11-28 21:00:00 11.4 27 Sudoeste 41 Sudoeste 0 -- -- 85
2019-11-28 20:00:00 11.4 28 Sudoeste 40 Sudoeste 0 -- -- 82
2019-11-28 19:00:00 11.7 21 Sudoeste 36 Sudoeste 0 -- -- 83
2019-11-28 18:00:00 11.9 18 Sudoeste 37 Sudoeste 0 -- -- 83
2019-11-28 17:00:00 12.3 24 Sudoeste 46 Sudoeste 0 -- -- 77
2019-11-28 16:00:00 12.7 27 Sudoeste 45 Sudoeste 0 -- -- 75
2019-11-28 15:00:00 12.1 20 Sudoeste 40 Sudoeste 0 -- -- 79
2019-11-28 14:00:00 12.1 20 Sudoeste 40 Sudoeste 0 -- -- 81
2019-11-28 13:00:00 11.6 17 Sudoeste 33 Sudoeste 0 -- -- 86
2019-11-28 12:00:00 11.6 22 Sudoeste 38 Sudoeste 0 -- -- 82
2019-11-28 11:00:00 11 22 Sudoeste 36 Sudoeste 0 -- -- 85
2019-11-28 10:00:00 10 18 Sudoeste 37 Sudoeste 0 -- -- 88
2019-11-28 09:00:00 9.6 20 Sudoeste 37 Sudoeste 0 -- -- 89
2019-11-28 08:00:00 9.7 19 Sudoeste 37 Sudoeste 0 -- -- 88
2019-11-28 07:00:00 9.9 18 Sudoeste 44 Sudoeste 0 -- -- 86
2019-11-28 06:00:00 9.6 27 Sudoeste 40 Sudoeste 0 -- -- 89
2019-11-28 05:00:00 9.5 14 Sudoeste 30 Oeste 0 -- -- 89
2019-11-28 04:00:00 9.3 17 Sudoeste 38 Sudoeste 0 -- -- 89
2019-11-28 03:00:00 9.5 18 Sudoeste 36 Sudoeste 0 -- -- 88
2019-11-28 02:00:00 9.5 22 Sudoeste 40 Sudoeste 0 -- -- 88
2019-11-28 01:00:00 9.3 24 Sudoeste 38 Oeste 0 -- -- 90
2019-11-28 00:00:00 9.3 24 Sudoeste 39 Sudoeste 0 -- -- 88
2019-11-27 23:00:00 9.7 26 Sudoeste 40 Sudoeste 0 -- -- 86
2019-11-27 22:00:00 9.7 21 Sudoeste 36 Oeste 0 -- -- 85
2019-11-27 21:00:00 10 19 Sudoeste 37 Sudoeste 0 -- -- 82
2019-11-27 20:00:00 10.2 21 Sudoeste 36 Sudoeste 0 -- -- 79
2019-11-27 19:00:00 10.5 21 Sudoeste 39 Oeste 0 -- -- 77
2019-11-27 18:00:00 10.8 20 Sudoeste 33 Sudoeste 0 -- -- 77
2019-11-27 17:00:00 10.9 20 Sudoeste 33 Sudoeste 0 -- -- 77
2019-11-27 16:00:00 10.9 22 Sudoeste 56 Oeste 0 -- -- 78
2019-11-27 15:00:00 11.3 23 Sudoeste 45 Sudoeste 0 -- -- 76
2019-11-27 14:00:00 11.3 23 Sudoeste 39 Oeste 0 -- -- 77
2019-11-27 06:00:00 -- -- -- -- -- -- -- -- --
2019-11-27 05:00:00 -- -- -- -- -- -- -- -- --
2019-11-27 04:00:00 -- -- -- -- -- -- -- -- --
2019-11-27 03:00:00 8.5 11 Oeste 33 Oeste 0 -- -- 92
2019-11-27 02:00:00 8.8 18 Oeste 31 Oeste 0 -- -- 91
2019-11-27 01:00:00 9 10 Oeste 39 Sudoeste 0 -- -- 94
2019-11-27 00:00:00 9.7 21 Oeste 42 Sudoeste 0.2 -- -- 93
2019-11-26 23:00:00 10 26 Oeste 52 Oeste 2.4 -- -- 97
2019-11-26 22:00:00 10.8 19 Sudoeste 45 Sudoeste 1.2 -- -- 96
2019-11-26 21:00:00 13 25 Sudoeste 51 Sudoeste 0 -- -- 84
2019-11-26 20:00:00 13.1 22 Sudoeste 41 Sudoeste 0 -- -- 86
2019-11-26 19:00:00 12.4 23 Oeste 66 Sudoeste 0.2 -- -- 96
2019-11-26 18:00:00 15.4 44 Sudoeste 67 Sudoeste 0 -- -- 74
2019-11-26 17:00:00 15.9 37 Sudoeste 65 Sudoeste 0 -- -- 70
2019-11-26 16:00:00 15.9 35 Sudoeste 51 Sudoeste 0 -- -- 72
2019-11-26 15:00:00 17.9 26 Sudoeste 50 Sudoeste 0 -- -- 67
2019-11-26 14:00:00 17.1 25 Sudoeste 53 Sudoeste 0 -- -- 69
2019-11-26 13:00:00 15.3 25 Sudoeste 40 Sudoeste 0 -- -- 76
2019-11-26 12:00:00 14.2 21 Sudoeste 35 Sudoeste 0 -- -- 84
2019-11-26 11:00:00 13.4 24 Sudoeste 40 Sudoeste 0 -- -- 88
2019-11-26 10:00:00 11.8 12 Sudoeste 32 Sudoeste 0.4 -- -- 95
2019-11-26 09:00:00 11.8 10 Sudoeste 18 Sudoeste 0 -- -- 90
2019-11-26 08:00:00 9.9 0 Calma 9 Oeste 0 -- -- 97
2019-11-26 07:00:00 10 6 Sudoeste 22 Sur 0.2 -- -- 95
2019-11-26 06:00:00 10.3 13 Sur 28 Sudoeste 0 -- -- 94
2019-11-26 05:00:00 10.1 11 Sudoeste 17 Sudoeste 0 -- -- 92
2019-11-26 04:00:00 9.7 10 Sudoeste 19 Sudoeste 0 -- -- 93
2019-11-26 03:00:00 9.6 10 Sudoeste 26 Sudoeste 0 -- -- 93
2019-11-26 02:00:00 10.5 19 Sudoeste 33 Sudoeste 0 -- -- 89
2019-11-26 01:00:00 9.5 2 Oeste 14 Sudoeste 0 -- -- 93
2019-11-26 00:00:00 9.9 7 Sudoeste 20 Sudoeste 0 -- -- 92
2019-11-25 23:00:00 8.8 3 Oeste 13 Oeste 0 -- -- 95
2019-11-25 22:00:00 9.5 6 Oeste 15 Oeste 0 -- -- 90
2019-11-25 21:00:00 9.2 5 Noroeste 15 Oeste 0 -- -- 89
2019-11-25 20:00:00 9.7 9 Sudoeste 20 Oeste 0 -- -- 87
2019-11-25 19:00:00 9.2 4 Oeste 17 Sudoeste 0 -- -- 91
2019-11-25 18:00:00 11.2 10 Sudoeste 15 Sudoeste 0 -- -- 83
2019-11-25 17:00:00 12.2 7 Sudoeste 21 Sudoeste 0 -- -- 80
2019-11-25 16:00:00 12.8 13 Oeste 35 Oeste 0 -- -- 75
2019-11-25 15:00:00 13.2 18 Oeste 37 Oeste 0 -- -- 72
2019-11-25 14:00:00 12.6 15 Oeste 28 Sudoeste 0 -- -- 86
2019-11-25 13:00:00 11.5 17 Sudoeste 30 Sudoeste 0.2 -- -- 94
2019-11-25 12:00:00 14 17 Sudoeste 28 Oeste 0 -- -- 83
2019-11-25 11:00:00 11 10 Sudoeste 30 Sudoeste 0 -- -- 96
2019-11-25 10:00:00 11.3 16 Sudoeste 34 Sudoeste 0 -- -- 91
2019-11-25 09:00:00 10.6 16 Oeste 30 Sudoeste 0 -- -- 94
2019-11-25 08:00:00 10.6 18 Sudoeste 28 Sudoeste 0 -- -- 93
2019-11-25 07:00:00 10.3 14 Sudoeste 23 Sudoeste 0 -- -- 94
2019-11-25 06:00:00 10.2 14 Oeste 29 Sudoeste 0 -- -- 94
2019-11-25 05:00:00 10.3 19 Sudoeste 35 Sudoeste 0 -- -- 95
2019-11-25 04:00:00 10 21 Sudoeste 34 Sudoeste 0 -- -- 96
2019-11-25 03:00:00 9.6 17 Oeste 26 Sudoeste 0.8 -- -- 100
2019-11-25 02:00:00 9.3 12 Oeste 24 Sudoeste 0.2 -- -- 99
2019-11-25 01:00:00 9.2 11 Oeste 18 Oeste 0.2 -- -- 97
2019-11-25 00:00:00 8.7 8 Oeste 21 Sudoeste 0 -- -- 97
2019-11-24 23:00:00 8.6 13 Sudoeste 31 Sudoeste 0 -- -- 91
2019-11-24 22:00:00 8 13 Sudoeste 21 Sudoeste 0 -- -- 92
2019-11-24 21:00:00 8.4 15 Sudoeste 27 Sudoeste 0 -- -- 86
2019-11-24 20:00:00 8.7 13 Sudoeste 22 Sudoeste 0 -- -- 81
2019-11-24 19:00:00 8.4 10 Sudoeste 21 Sudoeste 0 -- -- 83
2019-11-24 18:00:00 8 12 Sudoeste 27 Sudoeste 0 -- -- 87
2019-11-24 17:00:00 8.6 14 Sudoeste 25 Sudoeste 0 -- -- 80
2019-11-24 16:00:00 8.8 16 Oeste 27 Sudoeste 0 -- -- 78
2019-11-24 15:00:00 8.6 16 Oeste 32 Oeste 0 -- -- 78
2019-11-24 14:00:00 8.8 19 Sudoeste 31 Sudoeste 0 -- -- 77
2019-11-24 13:00:00 7.7 16 Sudoeste 23 Oeste 0 -- -- 82
2019-11-24 12:00:00 6.5 13 Sudoeste 25 Sudoeste 0 -- -- 87
2019-11-24 11:00:00 5.4 12 Oeste 24 Sudoeste 0 -- -- 91
2019-11-24 10:00:00 4.6 14 Sudoeste 23 Oeste 0 -- -- 94
2019-11-24 09:00:00 3.1 6 Sudoeste 15 Sudoeste 0 -- -- 98
2019-11-24 08:00:00 2.8 12 Oeste 18 Oeste 0 -- -- 99
2019-11-24 07:00:00 1.7 5 Sudoeste 12 Sudoeste 0 -- -- 99
2019-11-24 06:00:00 2.3 5 Sudoeste 15 Sudoeste 0 -- -- 98
2019-11-24 05:00:00 3.4 9 Sudoeste 17 Sudoeste 0 -- -- 96
2019-11-24 04:00:00 4.9 8 Sudoeste 22 Oeste 0 -- -- 93
2019-11-24 03:00:00 4.8 14 Oeste 22 Oeste 0 -- -- 94
2019-11-24 02:00:00 3.5 8 Sudoeste 18 Oeste 0 -- -- 96
2019-11-24 01:00:00 4 12 Sudoeste 19 Oeste 0 -- -- 93
2019-11-24 00:00:00 4 12 Sudoeste 20 Sudoeste 0 -- -- 91
2019-11-23 23:00:00 4.8 12 Oeste 19 Oeste 0 -- -- 88
2019-11-23 22:00:00 5.6 12 Oeste 27 Oeste 0 -- -- 84
2019-11-23 21:00:00 6.7 14 Oeste 24 Oeste 0 -- -- 79
2019-11-23 20:00:00 7.8 9 Sudoeste 18 Oeste 0 -- -- 74
2019-11-23 19:00:00 8.2 9 Oeste 23 Oeste 0 -- -- 70
2019-11-23 18:00:00 8.7 12 Oeste 29 Oeste 0 -- -- 66
2019-11-23 17:00:00 9.5 13 Oeste 38 Oeste 0 -- -- 62
2019-11-23 16:00:00 11.3 21 Oeste 40 Noroeste 0 -- -- 55
2019-11-23 15:00:00 11.5 22 Oeste 43 Oeste 0 -- -- 57
2019-11-23 14:00:00 11.1 19 Oeste 44 Oeste 0 -- -- 59
2019-11-23 13:00:00 9.9 22 Oeste 42 Oeste 0 -- -- 70
2019-11-23 12:00:00 9 22 Oeste 38 Oeste 0 -- -- 73
2019-11-23 11:00:00 7 19 Oeste 37 Oeste 0 -- -- 79
2019-11-23 10:00:00 5.8 22 Oeste 34 Sudoeste 0 -- -- 82
2019-11-23 09:00:00 4.3 19 Oeste 33 Oeste 0 -- -- 87
2019-11-23 08:00:00 4.4 19 Oeste 34 Oeste 0 -- -- 86
2019-11-23 07:00:00 4.9 21 Oeste 40 Oeste 0 -- -- 85
2019-11-23 06:00:00 5.4 23 Oeste 40 Oeste 0 -- -- 85
2019-11-23 05:00:00 5.9 27 Oeste 47 Oeste 0.2 -- -- 84
2019-11-23 04:00:00 5.9 23 Oeste 40 Oeste 0 -- -- 86
2019-11-23 03:00:00 5.5 23 Oeste 50 Oeste 0.6 -- -- 91
2019-11-23 02:00:00 7 26 Oeste 50 Oeste 0 -- -- 82
2019-11-23 01:00:00 7.6 28 Oeste 50 Sudoeste 0 -- -- 79
2019-11-23 00:00:00 8.2 26 Sudoeste 48 Oeste 0 -- -- 84
2019-11-22 23:00:00 8.3 27 Sudoeste 49 Sudoeste 0 -- -- 88
2019-11-22 22:00:00 8.8 27 Sudoeste 42 Sudoeste 0 -- -- 86
2019-11-22 21:00:00 8.7 29 Sudoeste 50 Sudoeste 0 -- -- 85
2019-11-22 20:00:00 8.6 21 Sudoeste 40 Sudoeste 0 -- -- 90
2019-11-22 19:00:00 8.3 13 Sudoeste 41 Oeste 0 -- -- 89
2019-11-22 18:00:00 10.4 27 Oeste 51 Sudoeste 0 -- -- 76
2019-11-22 17:00:00 12.4 19 Sudoeste 48 Sudoeste 0 -- -- 82
2019-11-22 16:00:00 12.9 24 Sudoeste 39 Sudoeste 0.6 -- -- 85
2019-11-22 15:00:00 12.6 26 Sudoeste 53 Sur 0 -- -- 84
2019-11-22 14:00:00 10.4 35 Sur 59 Sur 1 -- -- 92
2019-11-22 13:00:00 9.5 32 Sur 51 Sur 1.2 -- -- 92
2019-11-22 12:00:00 12.1 22 Sur 45 Sudoeste 0 -- -- 77
2019-11-22 11:00:00 9.6 19 Sur 39 Sudeste 0.2 -- -- 85
2019-11-22 10:00:00 8.3 18 Sur 41 Sudeste 0.2 -- -- 89
2019-11-22 09:00:00 7.2 14 Sur 32 Sur 1.6 -- -- 94
2019-11-22 08:00:00 6.9 14 Sur 22 Sudoeste 1.2 -- -- 96
2019-11-22 07:00:00 7.1 14 Sur 31 Sur 0.2 -- -- 93
2019-11-22 06:00:00 7.2 15 Sur 33 Sur 0 -- -- 90
2019-11-22 05:00:00 6.8 14 Sur 27 Sur 0.2 -- -- 90
2019-11-22 04:00:00 6.4 14 Sur 24 Sudoeste 0 -- -- 91
2019-11-22 03:00:00 5.3 0 Calma 8 Sudoeste 0.2 -- -- 99
2019-11-22 02:00:00 5.8 4 Oeste 8 Sudoeste 0.4 -- -- 96
2019-11-22 01:00:00 5.6 0 Calma 6 Oeste 0 -- -- 97
2019-11-22 00:00:00 5.4 0 Calma 9 Sur 0.2 -- -- 97
2019-11-21 23:00:00 6 3 Sur 10 Sudoeste 0 -- -- 93
2019-11-21 22:00:00 4.7 2 Norte 6 Norte 0 -- -- 98
2019-11-21 21:00:00 4.3 0 Calma 8 Oeste 0 -- -- 99
2019-11-21 20:00:00 3.9 0 Calma 6 Oeste 0 -- -- 96
2019-11-21 19:00:00 5.6 2 Norte 14 Sur 0 -- -- 91
2019-11-21 18:00:00 6.3 4 Sudoeste 12 Sudoeste 0 -- -- 86
2019-11-21 17:00:00 10.7 11 Oeste 19 Sudoeste 0 -- -- 69
2019-11-21 16:00:00 11 13 Oeste 28 Oeste 0 -- -- 68
2019-11-21 15:00:00 9.3 14 Oeste 24 Oeste 0 -- -- 72
2019-11-21 14:00:00 10.7 16 Sudoeste 26 Oeste 0 -- -- 70
2019-11-21 13:00:00 10 14 Oeste 23 Sudoeste 0 -- -- 79
2019-11-21 12:00:00 7.8 14 Oeste 22 Sudoeste 0 -- -- 93
2019-11-21 11:00:00 7.2 12 Sudoeste 26 Sudoeste 0 -- -- 93
2019-11-21 10:00:00 6.4 5 Oeste 10 Sudoeste 0 -- -- 96
2019-11-21 09:00:00 5.9 6 Oeste 27 Sudoeste 0 -- -- 95
2019-11-21 08:00:00 -- -- -- -- -- -- -- -- --
2019-11-21 07:00:00 -- -- -- -- -- -- -- -- --
2019-11-21 06:00:00 -- -- -- -- -- -- -- -- --
2019-11-21 05:00:00 -- -- -- -- -- -- -- -- --
2019-11-21 04:00:00 -- -- -- -- -- -- -- -- --
2019-11-21 03:00:00 -- -- -- -- -- -- -- -- --
2019-11-21 02:00:00 -- -- -- -- -- -- -- -- --
2019-11-21 01:00:00 -- -- -- -- -- -- -- -- --
2019-11-21 00:00:00 -- -- -- -- -- -- -- -- --
2019-11-20 23:00:00 -- -- -- -- -- -- -- -- --
2019-11-20 22:00:00 -- -- -- -- -- -- -- -- --
2019-11-20 21:00:00 -- -- -- -- -- -- -- -- --
2019-11-20 20:00:00 -- -- -- -- -- -- -- -- --
2019-11-20 19:00:00 5.9 4 Oeste 12 Sudoeste 0 -- -- 96
2019-11-20 18:00:00 5.8 0 Calma 5 Sudoeste 0.4 -- -- 99
2019-11-20 17:00:00 6 5 Sudoeste 17 Oeste 0.8 -- -- 97
2019-11-20 16:00:00 6.4 15 Sudoeste 26 Sudoeste 0.4 -- -- 93
2019-11-20 15:00:00 6.5 9 Oeste 14 Oeste 0.2 -- -- 96
2019-11-20 14:00:00 6.3 10 Sudoeste 20 Sudoeste 0.8 -- -- 94
2019-11-20 13:00:00 7 9 Sudoeste 15 Sudoeste 0.4 -- -- 94
2019-11-20 12:00:00 5.1 3 Nordeste 6 Nordeste 0 -- -- 98
2019-11-20 11:00:00 3.8 2 Nordeste 8 Este 0.2 -- -- 98
2019-11-20 10:00:00 3.4 0 Calma 6 Nordeste 0.4 -- -- 97
2019-11-20 09:00:00 2.4 2 Nordeste 7 Este 0 -- -- 98
2019-11-20 08:00:00 2 3 Nordeste 8 Este 0 -- -- 100
2019-11-20 07:00:00 1.8 2 Nordeste 9 Nordeste 0 -- -- 100
2019-11-20 06:00:00 2 3 Nordeste 6 Nordeste 0 -- -- 100
2019-11-20 05:00:00 2.1 3 Nordeste 5 Nordeste 0 -- -- 100
2019-11-20 04:00:00 1.9 2 Nordeste 4 Nordeste 0 -- -- 100
2019-11-20 03:00:00 1.9 0 Calma 5 Nordeste 0 -- -- 100
2019-11-20 02:00:00 2.7 3 Nordeste 6 Este 0 -- -- 100
2019-11-20 01:00:00 2.5 3 Nordeste 5 Este 0 -- -- 100
2019-11-20 00:00:00 2.2 4 Nordeste 6 Nordeste 0 -- -- 100
2019-11-19 23:00:00 1.5 0 Calma 6 Nordeste 0 -- -- 100
2019-11-19 22:00:00 1.7 2 Este 7 Nordeste 0 -- -- 100
2019-11-19 21:00:00 1.3 2 Nordeste 5 Nordeste 0 -- -- 99
2019-11-19 20:00:00 1.5 3 Este 5 Nordeste 0 -- -- 98
2019-11-19 19:00:00 2.4 0 Calma 5 Sudeste 0 -- -- 97
2019-11-19 18:00:00 4.3 0 Calma 3 Sudeste 0 -- -- 92
2019-11-19 17:00:00 7.1 0 Calma 8 Oeste 0 -- -- 81
2019-11-19 16:00:00 7.5 6 Oeste 10 Oeste 0 -- -- 78
2019-11-19 15:00:00 7.8 4 Oeste 8 Oeste 0 -- -- 78
2019-11-19 14:00:00 7.6 5 Oeste 12 Oeste 0 -- -- 79
2019-11-19 13:00:00 7.9 4 Oeste 8 Oeste 0 -- -- 78
2019-11-19 12:00:00 6.6 0 Calma 4 Noroeste 0 -- -- 85
2019-11-19 11:00:00 2.9 0 Calma 2 Nordeste 0 -- -- 98
2019-11-19 10:00:00 -0.4 0 Calma 3 Nordeste 0 -- -- 100
2019-11-19 09:00:00 -2.3 0 Calma 2 Nordeste 0 -- -- 100
2019-11-19 08:00:00 -3.8 0 Calma 2 Nordeste 0 -- -- 100
2019-11-19 07:00:00 -3.4 0 Calma 3 Nordeste 0 -- -- 100
2019-11-19 06:00:00 -3.2 0 Calma 4 Este 0 -- -- 100
2019-11-19 05:00:00 -2.9 0 Calma 5 Este 0 -- -- 100
2019-11-19 04:00:00 -2.9 0 Calma 4 Nordeste 0 -- -- 100
2019-11-19 03:00:00 -2.5 2 Este 4 Este 0 -- -- 100
2019-11-19 02:00:00 -1.9 0 Calma 3 Este 0 -- -- 100
2019-11-19 01:00:00 -2 3 Este 6 Este 0 -- -- 100
2019-11-19 00:00:00 -0.5 3 Este 5 Sudeste 0 -- -- 100
2019-11-18 23:00:00 0 0 Calma 3 Sur 0 -- -- 100
2019-11-18 22:00:00 -1.4 0 Calma 2 Este 0 -- -- 99
2019-11-18 21:00:00 0.1 0 Calma 4 Sudeste 0 -- -- 97
2019-11-18 20:00:00 2.1 2 Este 3 Este 0 -- -- 95
2019-11-18 19:00:00 4.6 0 Calma 3 Sudeste 0 -- -- 90
2019-11-18 18:00:00 6.5 2 Sudeste 5 Este 0 -- -- 80
2019-11-18 17:00:00 7.8 3 Este 12 Nordeste 0 -- -- 78
2019-11-18 16:00:00 9.3 3 Oeste 11 Oeste 0 -- -- 66
2019-11-18 15:00:00 10.3 5 Oeste 9 Oeste 0 -- -- 61
2019-11-18 14:00:00 9.6 2 Sur 9 Oeste 0 -- -- 65
2019-11-18 13:00:00 10.6 4 Sudoeste 9 Oeste 0 -- -- 66
2019-11-18 12:00:00 7.7 0 Calma 8 Oeste 0 -- -- 77
2019-11-18 11:00:00 4.7 5 Sudoeste 8 Sudoeste 0 -- -- 88
2019-11-18 10:00:00 1.3 3 Oeste 7 Sudoeste 0 -- -- 99
2019-11-18 09:00:00 -1.1 0 Calma 3 Sudoeste 0 -- -- 100
2019-11-18 08:00:00 -1.7 3 Sudoeste 4 Sur 0 -- -- 100
2019-11-18 07:00:00 -1.9 0 Calma 4 Sur 0 -- -- 100
2019-11-18 06:00:00 -2.1 0 Calma 3 Sudeste 0 -- -- 100
2019-11-18 05:00:00 -0.8 2 Sudeste 4 Sur 0 -- -- 100
2019-11-18 04:00:00 -0.7 0 Calma 8 Sur 0 -- -- 99
2019-11-18 03:00:00 0.6 0 Calma 8 Sudoeste 0 -- -- 95
2019-11-18 02:00:00 0.8 0 Calma 6 Noroeste 0 -- -- 95
2019-11-18 01:00:00 2.9 6 Sudoeste 13 Sudoeste 0 -- -- 89
2019-11-18 00:00:00 3.3 7 Sudoeste 13 Oeste 0 -- -- 88
2019-11-17 23:00:00 1.7 3 Sudeste 13 Oeste 0 -- -- 92
2019-11-17 22:00:00 4.4 10 Oeste 19 Oeste 0 -- -- 80
2019-11-17 21:00:00 4.5 3 Oeste 22 Oeste 0 -- -- 81
2019-11-17 20:00:00 5.5 8 Oeste 19 Noroeste 0 -- -- 82
2019-11-17 19:00:00 7.5 10 Oeste 18 Oeste 0 -- -- 81
2019-11-17 18:00:00 9.1 10 Oeste 27 Oeste 0 -- -- 83
2019-11-17 17:00:00 9.7 18 Oeste 28 Sudoeste 0 -- -- 86
2019-11-17 16:00:00 8.9 10 Oeste 22 Oeste 0 -- -- 92
2019-11-17 15:00:00 8.2 15 Oeste 33 Oeste 0.2 -- -- 98
2019-11-17 14:00:00 8.1 15 Oeste 30 Oeste 0 -- -- 97
2019-11-17 13:00:00 7.1 12 Oeste 24 Sudoeste 0.2 -- -- 100
2019-11-17 12:00:00 6 11 Oeste 22 Oeste 1 -- -- 100
2019-11-17 11:00:00 5.4 12 Oeste 29 Sudoeste 0.8 -- -- 98
2019-11-17 10:00:00 4.9 17 Sudoeste 26 Sudoeste 0 -- -- 98
2019-11-17 09:00:00 4.2 13 Sudoeste 24 Sudoeste 0 -- -- 99
2019-11-17 08:00:00 3.8 10 Sudoeste 21 Sudoeste 0 -- -- 96
2019-11-17 07:00:00 4.3 8 Sudoeste 15 Sudoeste 0 -- -- 89
2019-11-17 06:00:00 3.6 6 Oeste 15 Sudoeste 0 -- -- 89
2019-11-17 05:00:00 3.5 8 Sudoeste 17 Sudoeste 0 -- -- 89
2019-11-17 04:00:00 3.5 8 Sudoeste 17 Sudoeste 0 -- -- 89
2019-11-17 03:00:00 3.4 10 Sudoeste 14 Sudoeste 0 -- -- 89
2019-11-17 02:00:00 3.3 8 Oeste 14 Oeste 0 -- -- 88
2019-11-17 01:00:00 2.2 4 Sudoeste 9 Sudoeste 0 -- -- 91
2019-11-17 00:00:00 2.2 5 Oeste 12 Sudoeste 0 -- -- 89
2019-11-16 23:00:00 1.1 6 Oeste 11 Sudoeste 0 -- -- 92
2019-11-16 22:00:00 2.6 9 Oeste 14 Sudoeste 0 -- -- 85
2019-11-16 21:00:00 3.9 10 Sudoeste 17 Sudoeste 0 -- -- 81
2019-11-16 20:00:00 3.5 4 Sudoeste 8 Sudoeste 0 -- -- 80
2019-11-16 19:00:00 1.9 4 Sudoeste 10 Oeste 0 -- -- 85
2019-11-16 18:00:00 5.9 7 Oeste 22 Oeste 0 -- -- 65
2019-11-16 17:00:00 8.2 9 Noroeste 23 Oeste 0 -- -- 60
2019-11-16 16:00:00 8.6 13 Oeste 25 Oeste 0 -- -- 60
2019-11-16 15:00:00 8 14 Oeste 29 Sudoeste 0 -- -- 64
2019-11-16 14:00:00 8.9 13 Oeste 25 Sudoeste 0 -- -- 63
2019-11-16 13:00:00 7.7 13 Oeste 24 Oeste 0 -- -- 66
2019-11-16 12:00:00 6.3 12 Sudoeste 22 Oeste 0 -- -- 69
2019-11-16 11:00:00 4.7 9 Sudoeste 14 Sudoeste 0 -- -- 78
2019-11-16 10:00:00 0.7 4 Noroeste 8 Oeste 0 -- -- 97
2019-11-16 09:00:00 -2.1 4 Sudoeste 7 Sudoeste 0 -- -- 100
2019-11-16 08:00:00 -3 3 Oeste 6 Oeste 0 -- -- 100
2019-11-16 07:00:00 -3.3 0 Calma 4 Sur 0 -- -- 100
2019-11-16 06:00:00 -2.6 2 Sudoeste 4 Sur 0 -- -- 100
2019-11-16 05:00:00 -2.4 0 Calma 5 Sudeste 0 -- -- 100
2019-11-16 04:00:00 -2 0 Calma 5 Sudoeste 0 -- -- 100
2019-11-16 03:00:00 -1.9 0 Calma 5 Sudeste 0 -- -- 98
2019-11-16 02:00:00 -1.1 0 Calma 9 Oeste 0 -- -- 95
2019-11-16 01:00:00 0.8 3 Oeste 10 Oeste 0 -- -- 94
2019-11-16 00:00:00 2.2 2 Oeste 11 Noroeste 0 -- -- 86